sensor_id;sensor_type;location;lat;lon;timestamp;P1;durP1;ratioP1;P2;durP2;ratioP2
10641;SDS011;5369;49.586;8.646;2023-02-28T00:00:12;3.37;;;2.10;;
10641;SDS011;5369;49.586;8.646;2023-02-28T00:02:39;3.57;;;2.40;;
10641;SDS011;5369;49.586;8.646;2023-02-28T00:05:06;3.93;;;2.43;;
10641;SDS011;5369;49.586;8.646;2023-02-28T00:07:32;4.20;;;2.70;;
10641;SDS011;5369;49.586;8.646;2023-02-28T00:09:58;3.53;;;2.73;;
10641;SDS011;5369;49.586;8.646;2023-02-28T00:12:25;4.13;;;3.00;;
10641;SDS011;5369;49.586;8.646;2023-02-28T00:14:51;4.60;;;3.40;;
10641;SDS011;5369;49.586;8.646;2023-02-28T00:17:17;6.03;;;3.00;;
10641;SDS011;5369;49.586;8.646;2023-02-28T00:19:49;3.63;;;2.77;;
10641;SDS011;5369;49.586;8.646;2023-02-28T00:22:16;3.63;;;2.50;;
10641;SDS011;5369;49.586;8.646;2023-02-28T00:24:42;3.33;;;2.40;;
10641;SDS011;5369;49.586;8.646;2023-02-28T00:27:08;2.47;;;2.10;;
10641;SDS011;5369;49.586;8.646;2023-02-28T00:29:35;3.37;;;2.37;;
10641;SDS011;5369;49.586;8.646;2023-02-28T00:32:02;2.50;;;2.20;;
10641;SDS011;5369;49.586;8.646;2023-02-28T00:34:29;3.27;;;2.60;;
10641;SDS011;5369;49.586;8.646;2023-02-28T00:36:55;3.00;;;2.33;;
10641;SDS011;5369;49.586;8.646;2023-02-28T00:39:22;2.93;;;2.50;;
10641;SDS011;5369;49.586;8.646;2023-02-28T00:41:48;2.93;;;2.50;;
10641;SDS011;5369;49.586;8.646;2023-02-28T00:44:14;2.60;;;2.40;;
10641;SDS011;5369;49.586;8.646;2023-02-28T00:46:40;5.00;;;2.83;;
10641;SDS011;5369;49.586;8.646;2023-02-28T00:49:06;4.93;;;2.70;;
10641;SDS011;5369;49.586;8.646;2023-02-28T00:51:34;3.77;;;2.60;;
10641;SDS011;5369;49.586;8.646;2023-02-28T00:54:00;4.30;;;3.00;;
10641;SDS011;5369;49.586;8.646;2023-02-28T00:56:26;3.97;;;2.70;;
10641;SDS011;5369;49.586;8.646;2023-02-28T00:58:53;3.40;;;2.80;;
10641;SDS011;5369;49.586;8.646;2023-02-28T01:01:19;3.83;;;2.83;;
10641;SDS011;5369;49.586;8.646;2023-02-28T01:03:45;4.37;;;3.20;;
10641;SDS011;5369;49.586;8.646;2023-02-28T01:06:11;3.13;;;2.53;;
10641;SDS011;5369;49.586;8.646;2023-02-28T01:08:37;4.17;;;2.93;;
10641;SDS011;5369;49.586;8.646;2023-02-28T01:11:10;4.87;;;3.17;;
10641;SDS011;5369;49.586;8.646;2023-02-28T01:13:39;3.70;;;3.00;;
10641;SDS011;5369;49.586;8.646;2023-02-28T01:16:05;4.80;;;2.87;;
10641;SDS011;5369;49.586;8.646;2023-02-28T01:18:31;4.77;;;3.20;;
10641;SDS011;5369;49.586;8.646;2023-02-28T01:20:58;4.47;;;2.87;;
10641;SDS011;5369;49.586;8.646;2023-02-28T01:23:24;4.60;;;3.30;;
10641;SDS011;5369;49.586;8.646;2023-02-28T01:25:50;4.83;;;3.10;;
10641;SDS011;5369;49.586;8.646;2023-02-28T01:28:17;4.57;;;3.53;;
10641;SDS011;5369;49.586;8.646;2023-02-28T01:30:47;5.33;;;3.53;;
10641;SDS011;5369;49.586;8.646;2023-02-28T01:33:13;4.10;;;3.53;;
10641;SDS011;5369;49.586;8.646;2023-02-28T01:35:39;4.37;;;2.93;;
10641;SDS011;5369;49.586;8.646;2023-02-28T01:38:05;5.10;;;3.70;;
10641;SDS011;5369;49.586;8.646;2023-02-28T01:40:31;4.10;;;3.33;;
10641;SDS011;5369;49.586;8.646;2023-02-28T01:42:57;4.67;;;3.23;;
10641;SDS011;5369;49.586;8.646;2023-02-28T01:45:30;4.23;;;3.20;;
10641;SDS011;5369;49.586;8.646;2023-02-28T01:47:58;6.03;;;3.67;;
10641;SDS011;5369;49.586;8.646;2023-02-28T01:50:25;4.00;;;3.40;;
10641;SDS011;5369;49.586;8.646;2023-02-28T01:52:53;4.60;;;3.20;;
10641;SDS011;5369;49.586;8.646;2023-02-28T01:55:22;4.97;;;3.50;;
10641;SDS011;5369;49.586;8.646;2023-02-28T01:57:54;4.90;;;3.60;;
10641;SDS011;5369;49.586;8.646;2023-02-28T02:00:22;5.33;;;3.60;;
10641;SDS011;5369;49.586;8.646;2023-02-28T02:02:51;4.37;;;3.57;;
10641;SDS011;5369;49.586;8.646;2023-02-28T02:05:22;4.80;;;3.93;;
10641;SDS011;5369;49.586;8.646;2023-02-28T02:07:50;4.57;;;3.60;;
10641;SDS011;5369;49.586;8.646;2023-02-28T02:10:19;6.37;;;4.00;;
10641;SDS011;5369;49.586;8.646;2023-02-28T02:15:16;5.20;;;3.60;;
10641;SDS011;5369;49.586;8.646;2023-02-28T02:17:48;4.97;;;3.70;;
10641;SDS011;5369;49.586;8.646;2023-02-28T02:20:22;4.33;;;3.30;;
10641;SDS011;5369;49.586;8.646;2023-02-28T02:25:44;5.27;;;4.00;;
10641;SDS011;5369;49.586;8.646;2023-02-28T02:33:38;6.47;;;4.10;;
10641;SDS011;5369;49.586;8.646;2023-02-28T02:38:58;5.83;;;3.90;;
10641;SDS011;5369;49.586;8.646;2023-02-28T02:41:29;4.23;;;3.60;;
10641;SDS011;5369;49.586;8.646;2023-02-28T02:46:30;4.77;;;3.87;;
10641;SDS011;5369;49.586;8.646;2023-02-28T02:48:59;6.27;;;4.07;;
10641;SDS011;5369;49.586;8.646;2023-02-28T02:51:26;3.73;;;3.40;;
10641;SDS011;5369;49.586;8.646;2023-02-28T02:53:55;5.63;;;4.07;;
10641;SDS011;5369;49.586;8.646;2023-02-28T02:56:23;4.43;;;3.90;;
10641;SDS011;5369;49.586;8.646;2023-02-28T02:58:50;6.40;;;4.10;;
10641;SDS011;5369;49.586;8.646;2023-02-28T03:01:19;5.43;;;3.80;;
10641;SDS011;5369;49.586;8.646;2023-02-28T03:04:03;5.43;;;4.37;;
10641;SDS011;5369;49.586;8.646;2023-02-28T03:06:30;5.10;;;4.20;;
10641;SDS011;5369;49.586;8.646;2023-02-28T03:08:56;5.77;;;4.13;;
10641;SDS011;5369;49.586;8.646;2023-02-28T03:11:22;5.93;;;4.43;;
10641;SDS011;5369;49.586;8.646;2023-02-28T03:13:59;5.13;;;3.83;;
10641;SDS011;5369;49.586;8.646;2023-02-28T03:22:38;6.73;;;4.13;;
10641;SDS011;5369;49.586;8.646;2023-02-28T03:24:45;5.83;;;3.60;;
10641;SDS011;5369;49.586;8.646;2023-02-28T03:27:17;5.67;;;3.93;;
10641;SDS011;5369;49.586;8.646;2023-02-28T03:29:47;6.23;;;4.30;;
10641;SDS011;5369;49.586;8.646;2023-02-28T03:32:18;6.10;;;4.27;;
10641;SDS011;5369;49.586;8.646;2023-02-28T03:34:58;4.50;;;4.00;;
10641;SDS011;5369;49.586;8.646;2023-02-28T03:37:28;5.67;;;3.90;;
10641;SDS011;5369;49.586;8.646;2023-02-28T03:39:57;5.47;;;3.93;;
10641;SDS011;5369;49.586;8.646;2023-02-28T03:42:26;5.97;;;4.30;;
10641;SDS011;5369;49.586;8.646;2023-02-28T03:47:41;11.90;;;4.60;;
10641;SDS011;5369;49.586;8.646;2023-02-28T03:50:07;5.23;;;3.80;;
10641;SDS011;5369;49.586;8.646;2023-02-28T03:52:42;5.43;;;4.53;;
10641;SDS011;5369;49.586;8.646;2023-02-28T03:55:10;5.47;;;3.70;;
10641;SDS011;5369;49.586;8.646;2023-02-28T04:00:27;6.13;;;4.33;;
10641;SDS011;5369;49.586;8.646;2023-02-28T04:02:54;7.37;;;4.57;;
10641;SDS011;5369;49.586;8.646;2023-02-28T04:05:21;5.07;;;4.37;;
10641;SDS011;5369;49.586;8.646;2023-02-28T04:07:47;4.63;;;3.83;;
10641;SDS011;5369;49.586;8.646;2023-02-28T04:10:14;6.43;;;4.00;;
10641;SDS011;5369;49.586;8.646;2023-02-28T04:12:40;6.27;;;4.50;;
10641;SDS011;5369;49.586;8.646;2023-02-28T04:15:07;5.03;;;4.47;;
10641;SDS011;5369;49.586;8.646;2023-02-28T04:17:33;5.63;;;4.23;;
10641;SDS011;5369;49.586;8.646;2023-02-28T04:19:59;6.27;;;4.20;;
10641;SDS011;5369;49.586;8.646;2023-02-28T04:22:25;7.40;;;4.80;;
10641;SDS011;5369;49.586;8.646;2023-02-28T04:24:51;7.00;;;4.20;;
10641;SDS011;5369;49.586;8.646;2023-02-28T04:27:19;6.27;;;4.67;;
10641;SDS011;5369;49.586;8.646;2023-02-28T04:29:46;5.30;;;4.03;;
10641;SDS011;5369;49.586;8.646;2023-02-28T04:32:12;6.73;;;4.43;;
10641;SDS011;5369;49.586;8.646;2023-02-28T04:34:38;6.43;;;4.30;;
10641;SDS011;5369;49.586;8.646;2023-02-28T04:37:05;5.77;;;4.40;;
10641;SDS011;5369;49.586;8.646;2023-02-28T04:39:34;5.20;;;4.13;;
10641;SDS011;5369;49.586;8.646;2023-02-28T04:42:00;5.50;;;4.40;;
10641;SDS011;5369;49.586;8.646;2023-02-28T04:44:26;5.87;;;4.57;;
10641;SDS011;5369;49.586;8.646;2023-02-28T04:46:52;6.50;;;4.10;;
10641;SDS011;5369;49.586;8.646;2023-02-28T04:49:18;5.73;;;3.90;;
10641;SDS011;5369;49.586;8.646;2023-02-28T04:51:44;8.17;;;4.80;;
10641;SDS011;5369;49.586;8.646;2023-02-28T04:54:11;6.73;;;4.93;;
10641;SDS011;5369;49.586;8.646;2023-02-28T04:56:38;5.23;;;4.57;;
10641;SDS011;5369;49.586;8.646;2023-02-28T04:59:04;5.57;;;4.37;;
10641;SDS011;5369;49.586;8.646;2023-02-28T05:01:31;6.57;;;4.53;;
10641;SDS011;5369;49.586;8.646;2023-02-28T05:03:59;6.77;;;4.30;;
10641;SDS011;5369;49.586;8.646;2023-02-28T05:06:27;6.13;;;4.57;;
10641;SDS011;5369;49.586;8.646;2023-02-28T05:08:53;5.40;;;4.40;;
10641;SDS011;5369;49.586;8.646;2023-02-28T05:11:23;5.80;;;4.70;;
10641;SDS011;5369;49.586;8.646;2023-02-28T05:13:50;7.78;;;4.60;;
10641;SDS011;5369;49.586;8.646;2023-02-28T05:16:17;5.93;;;5.00;;
10641;SDS011;5369;49.586;8.646;2023-02-28T05:18:44;5.83;;;4.70;;
10641;SDS011;5369;49.586;8.646;2023-02-28T05:21:30;8.43;;;5.03;;
10641;SDS011;5369;49.586;8.646;2023-02-28T05:24:00;6.43;;;4.67;;
10641;SDS011;5369;49.586;8.646;2023-02-28T05:26:27;5.33;;;4.63;;
10641;SDS011;5369;49.586;8.646;2023-02-28T05:28:54;7.43;;;4.87;;
10641;SDS011;5369;49.586;8.646;2023-02-28T05:31:20;6.93;;;4.80;;
10641;SDS011;5369;49.586;8.646;2023-02-28T05:33:46;6.60;;;5.23;;
10641;SDS011;5369;49.586;8.646;2023-02-28T05:36:12;7.57;;;5.07;;
10641;SDS011;5369;49.586;8.646;2023-02-28T05:38:39;6.97;;;5.27;;
10641;SDS011;5369;49.586;8.646;2023-02-28T05:41:06;6.20;;;4.60;;
10641;SDS011;5369;49.586;8.646;2023-02-28T05:43:32;7.90;;;4.80;;
10641;SDS011;5369;49.586;8.646;2023-02-28T05:45:58;6.87;;;4.93;;
10641;SDS011;5369;49.586;8.646;2023-02-28T05:48:24;6.47;;;4.83;;
10641;SDS011;5369;49.586;8.646;2023-02-28T05:50:51;6.40;;;5.17;;
10641;SDS011;5369;49.586;8.646;2023-02-28T05:53:17;6.63;;;5.10;;
10641;SDS011;5369;49.586;8.646;2023-02-28T05:55:43;5.70;;;4.67;;
10641;SDS011;5369;49.586;8.646;2023-02-28T05:58:09;5.30;;;4.33;;
10641;SDS011;5369;49.586;8.646;2023-02-28T06:00:35;7.40;;;4.80;;
10641;SDS011;5369;49.586;8.646;2023-02-28T06:03:01;5.50;;;4.70;;
10641;SDS011;5369;49.586;8.646;2023-02-28T06:05:27;6.47;;;4.37;;
10641;SDS011;5369;49.586;8.646;2023-02-28T06:07:54;6.23;;;4.70;;
10641;SDS011;5369;49.586;8.646;2023-02-28T06:10:20;6.17;;;4.90;;
10641;SDS011;5369;49.586;8.646;2023-02-28T06:12:46;8.00;;;4.90;;
10641;SDS011;5369;49.586;8.646;2023-02-28T06:15:12;6.57;;;5.03;;
10641;SDS011;5369;49.586;8.646;2023-02-28T06:17:40;7.13;;;5.33;;
10641;SDS011;5369;49.586;8.646;2023-02-28T06:20:06;8.80;;;5.20;;
10641;SDS011;5369;49.586;8.646;2023-02-28T06:22:34;8.13;;;5.03;;
10641;SDS011;5369;49.586;8.646;2023-02-28T06:25:00;8.73;;;5.60;;
10641;SDS011;5369;49.586;8.646;2023-02-28T06:27:27;6.93;;;5.37;;
10641;SDS011;5369;49.586;8.646;2023-02-28T06:29:53;7.63;;;5.20;;
10641;SDS011;5369;49.586;8.646;2023-02-28T06:32:23;5.60;;;4.43;;
10641;SDS011;5369;49.586;8.646;2023-02-28T06:34:49;7.70;;;5.00;;
10641;SDS011;5369;49.586;8.646;2023-02-28T06:37:16;6.27;;;4.97;;
10641;SDS011;5369;49.586;8.646;2023-02-28T06:39:42;6.60;;;5.33;;
10641;SDS011;5369;49.586;8.646;2023-02-28T06:42:08;6.50;;;5.13;;
10641;SDS011;5369;49.586;8.646;2023-02-28T06:44:35;7.83;;;5.10;;
10641;SDS011;5369;49.586;8.646;2023-02-28T06:47:01;8.87;;;5.13;;
10641;SDS011;5369;49.586;8.646;2023-02-28T06:49:32;6.43;;;4.73;;
10641;SDS011;5369;49.586;8.646;2023-02-28T06:51:58;6.80;;;5.07;;
10641;SDS011;5369;49.586;8.646;2023-02-28T06:54:24;9.13;;;5.13;;
10641;SDS011;5369;49.586;8.646;2023-02-28T06:56:50;7.53;;;5.13;;
10641;SDS011;5369;49.586;8.646;2023-02-28T06:59:17;7.80;;;5.17;;
10641;SDS011;5369;49.586;8.646;2023-02-28T07:01:43;6.40;;;4.80;;
10641;SDS011;5369;49.586;8.646;2023-02-28T07:04:09;7.90;;;5.57;;
10641;SDS011;5369;49.586;8.646;2023-02-28T07:06:35;6.43;;;5.10;;
10641;SDS011;5369;49.586;8.646;2023-02-28T07:09:01;7.77;;;5.23;;
10641;SDS011;5369;49.586;8.646;2023-02-28T07:11:29;7.07;;;5.53;;
10641;SDS011;5369;49.586;8.646;2023-02-28T07:13:55;7.70;;;5.43;;
10641;SDS011;5369;49.586;8.646;2023-02-28T07:16:22;6.53;;;5.20;;
10641;SDS011;5369;49.586;8.646;2023-02-28T07:18:48;6.27;;;4.80;;
10641;SDS011;5369;49.586;8.646;2023-02-28T07:21:15;7.97;;;5.00;;
10641;SDS011;5369;49.586;8.646;2023-02-28T07:23:41;9.10;;;5.67;;
10641;SDS011;5369;49.586;8.646;2023-02-28T07:26:10;6.57;;;5.17;;
10641;SDS011;5369;49.586;8.646;2023-02-28T07:28:38;7.10;;;5.20;;
10641;SDS011;5369;49.586;8.646;2023-02-28T07:31:04;8.83;;;5.33;;
10641;SDS011;5369;49.586;8.646;2023-02-28T07:33:30;6.80;;;5.37;;
10641;SDS011;5369;49.586;8.646;2023-02-28T07:36:00;6.87;;;5.23;;
10641;SDS011;5369;49.586;8.646;2023-02-28T07:38:26;8.37;;;5.87;;
10641;SDS011;5369;49.586;8.646;2023-02-28T07:40:53;6.97;;;5.30;;
10641;SDS011;5369;49.586;8.646;2023-02-28T07:43:19;7.23;;;5.83;;
10641;SDS011;5369;49.586;8.646;2023-02-28T07:45:45;7.03;;;5.27;;
10641;SDS011;5369;49.586;8.646;2023-02-28T07:48:11;6.27;;;5.23;;
10641;SDS011;5369;49.586;8.646;2023-02-28T07:50:37;7.43;;;5.63;;
10641;SDS011;5369;49.586;8.646;2023-02-28T07:53:03;7.00;;;5.50;;
10641;SDS011;5369;49.586;8.646;2023-02-28T07:55:29;6.50;;;5.37;;
10641;SDS011;5369;49.586;8.646;2023-02-28T07:57:56;8.03;;;5.50;;
10641;SDS011;5369;49.586;8.646;2023-02-28T08:00:23;7.07;;;5.50;;
10641;SDS011;5369;49.586;8.646;2023-02-28T08:02:49;7.37;;;5.67;;
10641;SDS011;5369;49.586;8.646;2023-02-28T08:05:16;7.83;;;5.50;;
10641;SDS011;5369;49.586;8.646;2023-02-28T08:07:42;6.67;;;5.30;;
10641;SDS011;5369;49.586;8.646;2023-02-28T08:10:08;8.37;;;5.77;;
10641;SDS011;5369;49.586;8.646;2023-02-28T08:12:35;7.87;;;5.90;;
10641;SDS011;5369;49.586;8.646;2023-02-28T08:15:01;6.87;;;5.60;;
10641;SDS011;5369;49.586;8.646;2023-02-28T08:17:28;8.53;;;5.80;;
10641;SDS011;5369;49.586;8.646;2023-02-28T08:19:54;7.97;;;5.67;;
10641;SDS011;5369;49.586;8.646;2023-02-28T08:22:20;7.30;;;5.43;;
10641;SDS011;5369;49.586;8.646;2023-02-28T08:24:47;8.17;;;5.40;;
10641;SDS011;5369;49.586;8.646;2023-02-28T08:27:14;8.40;;;6.00;;
10641;SDS011;5369;49.586;8.646;2023-02-28T08:29:40;7.77;;;5.60;;
10641;SDS011;5369;49.586;8.646;2023-02-28T08:32:07;7.67;;;5.47;;
10641;SDS011;5369;49.586;8.646;2023-02-28T08:34:34;8.80;;;5.80;;
10641;SDS011;5369;49.586;8.646;2023-02-28T08:37:00;8.70;;;5.80;;
10641;SDS011;5369;49.586;8.646;2023-02-28T08:39:26;7.07;;;5.70;;
10641;SDS011;5369;49.586;8.646;2023-02-28T08:41:52;8.03;;;5.93;;
10641;SDS011;5369;49.586;8.646;2023-02-28T08:44:18;9.63;;;6.40;;
10641;SDS011;5369;49.586;8.646;2023-02-28T08:46:44;8.53;;;5.97;;
10641;SDS011;5369;49.586;8.646;2023-02-28T08:49:10;8.27;;;6.33;;
10641;SDS011;5369;49.586;8.646;2023-02-28T08:51:43;7.10;;;5.90;;
10641;SDS011;5369;49.586;8.646;2023-02-28T08:54:10;8.60;;;6.27;;
10641;SDS011;5369;49.586;8.646;2023-02-28T08:56:37;8.50;;;5.97;;
10641;SDS011;5369;49.586;8.646;2023-02-28T08:59:04;8.00;;;5.87;;
10641;SDS011;5369;49.586;8.646;2023-02-28T09:01:30;8.73;;;6.03;;
10641;SDS011;5369;49.586;8.646;2023-02-28T09:03:57;8.10;;;5.87;;
10641;SDS011;5369;49.586;8.646;2023-02-28T09:06:25;7.87;;;6.00;;
10641;SDS011;5369;49.586;8.646;2023-02-28T09:08:51;11.60;;;6.70;;
10641;SDS011;5369;49.586;8.646;2023-02-28T09:11:18;8.23;;;5.93;;
10641;SDS011;5369;49.586;8.646;2023-02-28T09:13:44;7.90;;;6.03;;
10641;SDS011;5369;49.586;8.646;2023-02-28T09:16:12;7.47;;;6.03;;
10641;SDS011;5369;49.586;8.646;2023-02-28T09:18:38;9.27;;;6.33;;
10641;SDS011;5369;49.586;8.646;2023-02-28T09:21:08;7.93;;;6.30;;
10641;SDS011;5369;49.586;8.646;2023-02-28T09:23:36;10.47;;;6.43;;
10641;SDS011;5369;49.586;8.646;2023-02-28T09:26:06;8.40;;;6.23;;
10641;SDS011;5369;49.586;8.646;2023-02-28T09:28:32;9.83;;;6.77;;
10641;SDS011;5369;49.586;8.646;2023-02-28T09:30:59;7.90;;;6.33;;
10641;SDS011;5369;49.586;8.646;2023-02-28T09:33:25;11.43;;;7.13;;
10641;SDS011;5369;49.586;8.646;2023-02-28T09:35:57;8.93;;;6.67;;
10641;SDS011;5369;49.586;8.646;2023-02-28T09:38:23;9.30;;;6.60;;
10641;SDS011;5369;49.586;8.646;2023-02-28T09:40:50;9.30;;;6.77;;
10641;SDS011;5369;49.586;8.646;2023-02-28T09:43:17;9.27;;;6.70;;
10641;SDS011;5369;49.586;8.646;2023-02-28T09:45:49;10.60;;;6.43;;
10641;SDS011;5369;49.586;8.646;2023-02-28T09:48:19;10.47;;;6.77;;
10641;SDS011;5369;49.586;8.646;2023-02-28T09:50:51;8.97;;;6.60;;
10641;SDS011;5369;49.586;8.646;2023-02-28T09:53:28;9.97;;;6.67;;
10641;SDS011;5369;49.586;8.646;2023-02-28T09:56:01;9.63;;;6.07;;
10641;SDS011;5369;49.586;8.646;2023-02-28T09:58:32;8.30;;;6.30;;
10641;SDS011;5369;49.586;8.646;2023-02-28T10:01:09;11.13;;;7.40;;
10641;SDS011;5369;49.586;8.646;2023-02-28T10:03:46;10.30;;;6.80;;
10641;SDS011;5369;49.586;8.646;2023-02-28T10:06:19;9.37;;;6.47;;
10641;SDS011;5369;49.586;8.646;2023-02-28T10:08:55;8.03;;;6.37;;
10641;SDS011;5369;49.586;8.646;2023-02-28T10:11:23;10.23;;;6.77;;
10641;SDS011;5369;49.586;8.646;2023-02-28T10:14:12;10.53;;;6.77;;
10641;SDS011;5369;49.586;8.646;2023-02-28T10:16:46;8.93;;;7.27;;
10641;SDS011;5369;49.586;8.646;2023-02-28T10:24:30;8.77;;;6.97;;
10641;SDS011;5369;49.586;8.646;2023-02-28T10:27:05;8.73;;;6.53;;
10641;SDS011;5369;49.586;8.646;2023-02-28T10:29:32;9.87;;;6.47;;
10641;SDS011;5369;49.586;8.646;2023-02-28T10:32:00;10.83;;;7.20;;
10641;SDS011;5369;49.586;8.646;2023-02-28T10:34:27;8.83;;;7.07;;
10641;SDS011;5369;49.586;8.646;2023-02-28T10:36:53;10.07;;;7.47;;
10641;SDS011;5369;49.586;8.646;2023-02-28T10:42:03;9.70;;;6.73;;
10641;SDS011;5369;49.586;8.646;2023-02-28T10:44:29;8.90;;;7.10;;
10641;SDS011;5369;49.586;8.646;2023-02-28T10:46:55;8.83;;;6.90;;
10641;SDS011;5369;49.586;8.646;2023-02-28T10:49:26;12.13;;;8.10;;
10641;SDS011;5369;49.586;8.646;2023-02-28T10:51:57;10.43;;;7.50;;
10641;SDS011;5369;49.586;8.646;2023-02-28T10:54:28;10.20;;;7.57;;
10641;SDS011;5369;49.586;8.646;2023-02-28T10:57:16;10.60;;;7.63;;
10641;SDS011;5369;49.586;8.646;2023-02-28T10:59:43;9.43;;;7.23;;
10641;SDS011;5369;49.586;8.646;2023-02-28T11:04:54;10.57;;;7.13;;
10641;SDS011;5369;49.586;8.646;2023-02-28T11:07:22;10.07;;;6.83;;
10641;SDS011;5369;49.586;8.646;2023-02-28T11:09:50;9.60;;;7.20;;
10641;SDS011;5369;49.586;8.646;2023-02-28T11:12:20;10.07;;;7.80;;
10641;SDS011;5369;49.586;8.646;2023-02-28T11:14:48;10.50;;;7.60;;
10641;SDS011;5369;49.586;8.646;2023-02-28T11:17:22;10.47;;;8.00;;
10641;SDS011;5369;49.586;8.646;2023-02-28T11:19:59;14.77;;;7.63;;
10641;SDS011;5369;49.586;8.646;2023-02-28T11:22:29;11.33;;;7.80;;
10641;SDS011;5369;49.586;8.646;2023-02-28T11:24:59;10.00;;;7.43;;
10641;SDS011;5369;49.586;8.646;2023-02-28T11:27:42;9.73;;;7.83;;
10641;SDS011;5369;49.586;8.646;2023-02-28T11:30:25;10.27;;;7.23;;
10641;SDS011;5369;49.586;8.646;2023-02-28T11:32:51;9.13;;;7.17;;
10641;SDS011;5369;49.586;8.646;2023-02-28T11:35:40;9.00;;;6.93;;
10641;SDS011;5369;49.586;8.646;2023-02-28T11:38:09;8.90;;;7.23;;
10641;SDS011;5369;49.586;8.646;2023-02-28T11:41:01;11.03;;;8.97;;
10641;SDS011;5369;49.586;8.646;2023-02-28T11:43:37;9.20;;;7.03;;
10641;SDS011;5369;49.586;8.646;2023-02-28T11:46:06;10.03;;;8.13;;
10641;SDS011;5369;49.586;8.646;2023-02-28T11:48:48;9.37;;;7.30;;
10641;SDS011;5369;49.586;8.646;2023-02-28T11:51:23;8.83;;;6.93;;
10641;SDS011;5369;49.586;8.646;2023-02-28T11:58:51;9.63;;;7.07;;
10641;SDS011;5369;49.586;8.646;2023-02-28T12:01:27;10.70;;;7.97;;
10641;SDS011;5369;49.586;8.646;2023-02-28T12:04:09;14.93;;;11.50;;
10641;SDS011;5369;49.586;8.646;2023-02-28T12:06:51;16.07;;;11.60;;
10641;SDS011;5369;49.586;8.646;2023-02-28T12:09:33;17.67;;;7.70;;
10641;SDS011;5369;49.586;8.646;2023-02-28T12:12:04;10.27;;;8.33;;
10641;SDS011;5369;49.586;8.646;2023-02-28T12:28:26;10.30;;;7.97;;
10641;SDS011;5369;49.586;8.646;2023-02-28T12:30:58;8.57;;;7.13;;
10641;SDS011;5369;49.586;8.646;2023-02-28T12:33:28;10.43;;;7.33;;
10641;SDS011;5369;49.586;8.646;2023-02-28T12:35:57;10.50;;;8.10;;
10641;SDS011;5369;49.586;8.646;2023-02-28T12:38:31;9.97;;;8.53;;
10641;SDS011;5369;49.586;8.646;2023-02-28T12:41:01;12.87;;;10.60;;
10641;SDS011;5369;49.586;8.646;2023-02-28T12:43:33;9.97;;;7.73;;
10641;SDS011;5369;49.586;8.646;2023-02-28T12:48:31;9.60;;;7.60;;
10641;SDS011;5369;49.586;8.646;2023-02-28T12:51:04;8.90;;;7.33;;
10641;SDS011;5369;49.586;8.646;2023-02-28T12:56:21;10.07;;;8.47;;
10641;SDS011;5369;49.586;8.646;2023-02-28T12:58:52;9.20;;;7.77;;
10641;SDS011;5369;49.586;8.646;2023-02-28T13:01:39;10.03;;;8.47;;
10641;SDS011;5369;49.586;8.646;2023-02-28T13:06:59;8.80;;;7.43;;
10641;SDS011;5369;49.586;8.646;2023-02-28T13:09:29;10.40;;;9.33;;
10641;SDS011;5369;49.586;8.646;2023-02-28T13:11:55;15.50;;;13.93;;
10641;SDS011;5369;49.586;8.646;2023-02-28T13:19:46;9.30;;;8.20;;
10641;SDS011;5369;49.586;8.646;2023-02-28T13:22:35;8.60;;;7.00;;
10641;SDS011;5369;49.586;8.646;2023-02-28T13:27:54;9.00;;;8.10;;
10641;SDS011;5369;49.586;8.646;2023-02-28T13:36:12;9.37;;;8.20;;
10641;SDS011;5369;49.586;8.646;2023-02-28T13:38:49;8.23;;;7.33;;
10641;SDS011;5369;49.586;8.646;2023-02-28T13:47:24;9.47;;;8.23;;
10641;SDS011;5369;49.586;8.646;2023-02-28T13:49:27;9.70;;;8.70;;
10641;SDS011;5369;49.586;8.646;2023-02-28T13:54:42;13.60;;;7.43;;
10641;SDS011;5369;49.586;8.646;2023-02-28T13:57:14;8.47;;;7.23;;
10641;SDS011;5369;49.586;8.646;2023-02-28T14:05:05;9.40;;;7.77;;
10641;SDS011;5369;49.586;8.646;2023-02-28T14:07:33;8.80;;;7.53;;
10641;SDS011;5369;49.586;8.646;2023-02-28T14:10:04;8.60;;;7.80;;
10641;SDS011;5369;49.586;8.646;2023-02-28T14:15:30;10.87;;;9.23;;
10641;SDS011;5369;49.586;8.646;2023-02-28T14:18:05;9.30;;;7.77;;
10641;SDS011;5369;49.586;8.646;2023-02-28T14:20:36;10.23;;;7.97;;
10641;SDS011;5369;49.586;8.646;2023-02-28T14:23:25;8.40;;;7.50;;
10641;SDS011;5369;49.586;8.646;2023-02-28T14:26:01;8.37;;;7.40;;
10641;SDS011;5369;49.586;8.646;2023-02-28T14:28:47;9.20;;;7.37;;
10641;SDS011;5369;49.586;8.646;2023-02-28T14:31:18;10.07;;;7.40;;
10641;SDS011;5369;49.586;8.646;2023-02-28T14:36:37;8.77;;;7.40;;
10641;SDS011;5369;49.586;8.646;2023-02-28T14:39:05;12.87;;;11.00;;
10641;SDS011;5369;49.586;8.646;2023-02-28T14:41:36;9.50;;;8.03;;
10641;SDS011;5369;49.586;8.646;2023-02-28T14:44:20;8.37;;;7.20;;
10641;SDS011;5369;49.586;8.646;2023-02-28T14:46:51;9.53;;;8.53;;
10641;SDS011;5369;49.586;8.646;2023-02-28T14:49:24;10.27;;;8.70;;
10641;SDS011;5369;49.586;8.646;2023-02-28T14:52:02;9.67;;;7.93;;
10641;SDS011;5369;49.586;8.646;2023-02-28T14:54:29;11.40;;;8.80;;
10641;SDS011;5369;49.586;8.646;2023-02-28T14:56:55;15.20;;;9.33;;
10641;SDS011;5369;49.586;8.646;2023-02-28T14:59:29;8.57;;;7.67;;
10641;SDS011;5369;49.586;8.646;2023-02-28T15:04:41;12.80;;;9.57;;
10641;SDS011;5369;49.586;8.646;2023-02-28T15:07:13;10.23;;;8.07;;
10641;SDS011;5369;49.586;8.646;2023-02-28T15:09:40;15.93;;;12.67;;
10641;SDS011;5369;49.586;8.646;2023-02-28T15:12:06;18.63;;;15.53;;
10641;SDS011;5369;49.586;8.646;2023-02-28T15:14:33;17.13;;;11.93;;
10641;SDS011;5369;49.586;8.646;2023-02-28T15:17:02;10.23;;;8.17;;
10641;SDS011;5369;49.586;8.646;2023-02-28T15:19:32;10.17;;;7.50;;
10641;SDS011;5369;49.586;8.646;2023-02-28T15:22:00;11.90;;;7.63;;
10641;SDS011;5369;49.586;8.646;2023-02-28T15:24:35;10.30;;;7.93;;
10641;SDS011;5369;49.586;8.646;2023-02-28T15:27:04;10.10;;;7.97;;
10641;SDS011;5369;49.586;8.646;2023-02-28T15:29:34;15.97;;;10.53;;
10641;SDS011;5369;49.586;8.646;2023-02-28T15:32:04;11.00;;;8.40;;
10641;SDS011;5369;49.586;8.646;2023-02-28T15:34:35;10.57;;;7.80;;
10641;SDS011;5369;49.586;8.646;2023-02-28T15:37:02;11.37;;;8.50;;
10641;SDS011;5369;49.586;8.646;2023-02-28T15:39:32;10.50;;;8.50;;
10641;SDS011;5369;49.586;8.646;2023-02-28T15:42:11;10.63;;;8.13;;
10641;SDS011;5369;49.586;8.646;2023-02-28T15:44:37;10.47;;;8.20;;
10641;SDS011;5369;49.586;8.646;2023-02-28T15:47:05;10.90;;;8.20;;
10641;SDS011;5369;49.586;8.646;2023-02-28T15:50:06;11.83;;;9.20;;
10641;SDS011;5369;49.586;8.646;2023-02-28T15:55:07;14.70;;;10.30;;
10641;SDS011;5369;49.586;8.646;2023-02-28T15:57:33;11.37;;;8.70;;
10641;SDS011;5369;49.586;8.646;2023-02-28T16:00:00;10.63;;;9.30;;
10641;SDS011;5369;49.586;8.646;2023-02-28T16:02:37;11.03;;;8.73;;
10641;SDS011;5369;49.586;8.646;2023-02-28T16:07:36;10.97;;;8.73;;
10641;SDS011;5369;49.586;8.646;2023-02-28T16:10:03;22.63;;;14.73;;
10641;SDS011;5369;49.586;8.646;2023-02-28T16:12:31;18.47;;;12.63;;
10641;SDS011;5369;49.586;8.646;2023-02-28T16:14:59;10.23;;;7.77;;
10641;SDS011;5369;49.586;8.646;2023-02-28T16:17:33;24.07;;;18.67;;
10641;SDS011;5369;49.586;8.646;2023-02-28T16:20:00;12.13;;;10.00;;
10641;SDS011;5369;49.586;8.646;2023-02-28T16:22:26;12.17;;;10.03;;
10641;SDS011;5369;49.586;8.646;2023-02-28T16:24:52;13.40;;;9.80;;
10641;SDS011;5369;49.586;8.646;2023-02-28T16:27:20;10.23;;;8.43;;
10641;SDS011;5369;49.586;8.646;2023-02-28T16:29:47;10.30;;;8.77;;
10641;SDS011;5369;49.586;8.646;2023-02-28T16:32:14;11.67;;;8.30;;
10641;SDS011;5369;49.586;8.646;2023-02-28T16:34:42;11.07;;;7.83;;
10641;SDS011;5369;49.586;8.646;2023-02-28T16:37:12;14.63;;;11.47;;
10641;SDS011;5369;49.586;8.646;2023-02-28T16:39:40;10.03;;;8.27;;
10641;SDS011;5369;49.586;8.646;2023-02-28T16:42:07;9.77;;;7.80;;
10641;SDS011;5369;49.586;8.646;2023-02-28T16:44:34;13.43;;;10.27;;
10641;SDS011;5369;49.586;8.646;2023-02-28T16:47:01;11.27;;;8.57;;
10641;SDS011;5369;49.586;8.646;2023-02-28T16:49:28;10.23;;;7.97;;
10641;SDS011;5369;49.586;8.646;2023-02-28T16:51:54;9.57;;;7.50;;
10641;SDS011;5369;49.586;8.646;2023-02-28T16:54:21;8.13;;;7.00;;